Whitehouse, Texas
Current Conditions -  °F | °C
As of 3:53 PM on Tuesday 25 Nov 2014 (Local Time) from KTYR Reporting Station
Clear Clear  
Wind Chill: 64°   Ceiling: Unl
Heat Index: 64°   Visibility: 10mi
Dew Point: 25°   Wind: 12mph
Humidity: 23%   Direction: 270°W
Pressure: 30.16"   Gusts: 22mph
Location:  32.23°N, 95.23°W
Report Text: KTYR 252153Z 27010G19KT 110V330 10SM CLR 18/M04 A3016 RMK AO2 SLP210 T01781039
Loading
Personal Weather Stations






























Interactive Weather Map New forecast layout! Learn more

10-Day Weather Forecast

Advertisements
Track Severe Weather on mobile